Pagina principale
METAR-TAF:

METAR-TAF

Aeroporti :

Payerne, Svizzera

latitudine: 46-49N, longitudine: 006-57E, altezza: 490 m

Osservazione

Il bollettino è stato emesso 21 minuti fa, alle 00:50 UTC
Vento 16 kt da ovest/sud-ovest, variando fra sud-ovest e ovest
Temperature 7°C
Umidità 66%
Pressione 1003 hPa
Visibilità 10 km o più
Poco nuvoloso ad un'altezza di 3100 ft
Nubi sparse ad un'altezza di 4600 ft
Nuvoloso ad un'altezza di 5200 ft
rovesci di pioggia

METAR: LSMP 170050Z AUTO 25016KT 220V280 9999NDV -SHRA FEW031 SCT046 BKN052 07/01 Q1003 RMK

Ora: 02:11 (01:11 UTC)


TAF: mancante

Osservazioni e previsioni meteorologiche di più di 4000 aeroporti (messaggi METAR e TAF).

Le stazioni disponibili sono rappresentate dai dischi gialli e rossi sulla carta.

Puntare il mouse per vedere il nome della stazione.

Clicca sopra per visualizzare le osservazioni e previsioni meteorologiche.

Per cambiare la mappa : fare clic sui pulsanti verdi con una croce nera per ingrandire, il pulsante verde con un trattino per diminuire, o sulla freccia verde per le mappe adiacenti.


METAR-TAF: